Time;durP1;ratioP1;P1;durP2;ratioP2;P2;SDS_P1;SDS_P2;PMS_P1;PMS_P2;Temp;Humidity;BMP_temperature;BMP_pressure;BME280_temperature;BME280_humidity;BME280_pressure;Samples;Min_cycle;Max_cycle;Signal;HPM_P1;HPM_P2
2023/09/17 00:00:57;;;;;;;27.70;20.38;;;20.10;99.90;;;;;;4960225;28;20097;-81
2023/09/17 00:03:23;;;;;;;21.02;17.88;;;19.80;99.90;;;;;;4970723;28;20047;-82
2023/09/17 00:05:48;;;;;;;20.38;17.83;;;19.90;99.90;;;;;;4951855;28;20035;-82
2023/09/17 00:08:14;;;;;;;24.73;19.67;;;19.90;99.90;;;;;;4975389;28;20038;-84
2023/09/17 00:10:43;;;;;;;22.95;18.38;;;19.90;99.90;;;;;;4970053;28;20398;-82
2023/09/17 00:13:08;;;;;;;27.58;22.02;;;20.00;99.90;;;;;;4956431;28;20038;-82
2023/09/17 00:15:34;;;;;;;26.73;21.38;;;19.80;99.90;;;;;;4984111;28;20097;-82
2023/09/17 00:18:00;;;;;;;34.20;25.48;;;19.80;99.90;;;;;;4986462;28;20084;-82
2023/09/17 00:20:25;;;;;;;28.60;23.73;;;19.80;99.90;;;;;;4970214;28;20039;-81
2023/09/17 00:22:51;;;;;;;27.25;23.50;;;19.80;99.90;;;;;;4955177;28;20387;-82
2023/09/17 00:25:17;;;;;;;30.95;25.63;;;19.80;99.90;;;;;;4968121;28;20054;-82
2023/09/17 00:27:42;;;;;;;30.55;23.77;;;19.80;99.90;;;;;;4972765;28;20030;-82
2023/09/17 00:30:09;;;;;;;32.15;26.48;;;19.80;99.90;;;;;;4970582;28;20061;-82
2023/09/17 00:32:35;;;;;;;38.28;26.38;;;19.80;99.90;;;;;;4970919;28;20410;-83
2023/09/17 00:35:01;;;;;;;34.10;26.45;;;19.80;99.90;;;;;;4967341;28;20037;-82
2023/09/17 00:37:26;;;;;;;39.38;29.85;;;19.70;99.90;;;;;;4969945;28;20038;-82
2023/09/17 00:39:52;;;;;;;35.67;29.50;;;19.70;99.90;;;;;;4973298;28;20303;-82
2023/09/17 00:42:17;;;;;;;33.15;27.48;;;19.60;99.90;;;;;;4956829;28;20557;-82
2023/09/17 00:44:43;;;;;;;34.63;28.33;;;19.70;99.90;;;;;;4967999;28;20122;-82
2023/09/17 00:47:09;;;;;;;39.28;29.33;;;19.70;99.90;;;;;;4955026;28;20031;-81
2023/09/17 00:49:34;;;;;;;35.85;29.13;;;19.70;99.90;;;;;;4970424;28;20034;-82
2023/09/17 00:52:00;;;;;;;37.05;27.85;;;19.80;99.90;;;;;;4968766;28;20046;-82
2023/09/17 00:54:27;;;;;;;34.17;29.02;;;19.70;99.90;;;;;;4955051;28;20114;-81
2023/09/17 00:56:52;;;;;;;35.20;27.52;;;19.60;99.90;;;;;;4970988;28;20035;-82
2023/09/17 00:59:18;;;;;;;30.63;26.30;;;19.60;99.90;;;;;;4972715;28;20035;-82
2023/09/17 01:01:44;;;;;;;31.77;26.75;;;19.60;99.90;;;;;;4958273;28;20134;-82
2023/09/17 01:04:14;;;;;;;26.45;22.20;;;19.50;99.90;;;;;;4972009;28;20062;-82
2023/09/17 01:06:40;;;;;;;26.98;21.52;;;19.60;99.90;;;;;;4973679;28;20554;-81
2023/09/17 01:09:07;;;;;;;21.92;19.60;;;19.70;99.90;;;;;;4975011;28;20046;-81
2023/09/17 01:11:34;;;;;;;15.27;12.45;;;19.90;99.90;;;;;;4971409;28;20091;-82
2023/09/17 01:14:12;;;;;;;15.85;13.68;;;19.80;99.90;;;;;;4972689;28;20035;-82
2023/09/17 01:16:39;;;;;;;20.90;18.25;;;19.80;99.90;;;;;;4971535;28;22196;-82
2023/09/17 01:19:05;;;;;;;27.45;20.08;;;19.80;99.90;;;;;;4956240;28;20027;-82
2023/09/17 01:21:36;;;;;;;24.00;20.83;;;19.80;99.90;;;;;;4971729;28;20038;-81
2023/09/17 01:24:28;;;;;;;24.95;20.42;;;19.80;99.90;;;;;;4974128;28;20516;-82
2023/09/17 01:26:59;;;;;;;25.35;22.08;;;19.70;99.90;;;;;;4971281;28;20042;-82
2023/09/17 01:29:25;;;;;;;26.88;23.27;;;19.60;99.90;;;;;;4973759;28;20035;-81
2023/09/17 01:31:51;;;;;;;25.88;21.38;;;19.60;99.90;;;;;;4971255;28;20049;-81
2023/09/17 01:34:16;;;;;;;29.27;22.13;;;19.50;99.90;;;;;;4956143;28;20077;-82
2023/09/17 01:36:42;;;;;;;26.70;23.80;;;19.40;99.90;;;;;;4973346;28;20045;-81
2023/09/17 01:39:22;;;;;;;25.30;22.60;;;19.40;99.90;;;;;;4950025;28;20090;-82
2023/09/17 01:41:47;;;;;;;26.88;23.83;;;19.40;99.90;;;;;;4956820;28;20034;-81
2023/09/17 01:44:13;;;;;;;24.10;21.52;;;19.40;99.90;;;;;;4975594;28;20030;-81
2023/09/17 01:46:39;;;;;;;24.55;20.77;;;19.30;99.90;;;;;;4969559;28;20034;-82
2023/09/17 01:49:04;;;;;;;26.85;21.35;;;19.30;99.90;;;;;;4955518;28;20094;-82
2023/09/17 01:51:32;;;;;;;21.58;19.27;;;19.30;99.90;;;;;;4972759;28;20027;-81
2023/09/17 01:53:58;;;;;;;22.67;19.05;;;19.30;99.90;;;;;;4971423;28;20740;-81
2023/09/17 01:56:24;;;;;;;23.77;19.08;;;19.30;99.90;;;;;;4975475;28;20111;-82
2023/09/17 01:58:49;;;;;;;22.42;20.08;;;19.30;99.90;;;;;;4958251;28;20030;-81
2023/09/17 02:01:15;;;;;;;24.42;18.42;;;19.30;99.90;;;;;;4969580;28;20042;-81
2023/09/17 02:03:42;;;;;;;21.52;19.00;;;19.20;99.90;;;;;;4973781;28;20050;-81
2023/09/17 02:06:07;;;;;;;23.30;19.85;;;19.20;99.90;;;;;;4971595;28;20097;-81
2023/09/17 02:08:34;;;;;;;23.25;20.30;;;19.10;99.90;;;;;;4972293;28;20494;-82
2023/09/17 02:10:59;;;;;;;26.95;20.67;;;19.10;99.90;;;;;;4975562;28;20042;-83
2023/09/17 02:13:25;;;;;;;23.48;19.45;;;19.00;99.90;;;;;;4982334;28;20567;-81
2023/09/17 02:15:51;;;;;;;22.98;18.52;;;19.00;99.90;;;;;;4972359;28;20041;-82
2023/09/17 02:18:16;;;;;;;21.95;18.90;;;19.00;99.90;;;;;;4973665;28;20031;-81
2023/09/17 02:20:42;;;;;;;24.05;20.55;;;19.00;99.90;;;;;;4971933;28;20035;-81
2023/09/17 02:23:10;;;;;;;21.98;19.30;;;18.90;99.90;;;;;;4970658;28;20409;-81
2023/09/17 02:25:35;;;;;;;22.27;19.80;;;18.90;99.90;;;;;;4975222;28;20115;-81
2023/09/17 02:28:02;;;;;;;24.33;20.80;;;18.90;99.90;;;;;;4966050;28;20162;-81
2023/09/17 02:30:28;;;;;;;22.52;20.13;;;18.80;99.90;;;;;;4965723;28;20214;-81
2023/09/17 02:32:54;;;;;;;23.23;20.55;;;18.80;99.90;;;;;;4967937;28;20045;-82
2023/09/17 02:35:19;;;;;;;24.65;20.63;;;18.80;99.90;;;;;;4945500;28;20031;-81
2023/09/17 02:37:45;;;;;;;31.15;23.42;;;18.80;99.90;;;;;;4972048;28;20347;-82
2023/09/17 02:40:11;;;;;;;26.88;22.85;;;18.70;99.90;;;;;;4972711;28;20031;-81
2023/09/17 02:42:37;;;;;;;26.83;23.17;;;18.70;99.90;;;;;;4968990;28;20094;-81
2023/09/17 02:45:04;;;;;;;27.10;23.98;;;18.70;99.90;;;;;;4983724;28;20038;-81
2023/09/17 02:47:31;;;;;;;27.33;22.73;;;18.70;99.90;;;;;;4969487;28;20031;-83
2023/09/17 02:49:56;;;;;;;20.10;17.20;;;18.70;99.90;;;;;;4950486;28;20042;-81
2023/09/17 02:52:22;;;;;;;31.55;24.05;;;18.70;99.90;;;;;;4957154;28;20034;-80
2023/09/17 02:54:47;;;;;;;25.92;22.42;;;18.70;99.90;;;;;;4971971;28;20920;-80
2023/09/17 02:57:13;;;;;;;20.48;18.02;;;18.60;99.90;;;;;;4971452;28;20058;-81
2023/09/17 02:59:38;;;;;;;29.10;23.90;;;18.70;99.90;;;;;;4971136;28;20181;-81
2023/09/17 03:02:04;;;;;;;26.02;22.75;;;18.70;99.90;;;;;;4972369;28;20101;-82
2023/09/17 03:04:30;;;;;;;11.15;10.00;;;18.60;99.90;;;;;;4969783;28;20031;-81
2023/09/17 03:06:56;;;;;;;25.50;20.52;;;18.60;99.90;;;;;;4955405;28;20061;-82
2023/09/17 03:09:22;;;;;;;26.25;21.08;;;18.60;99.90;;;;;;4956653;28;20687;-81
2023/09/17 03:11:47;;;;;;;24.45;21.52;;;18.60;99.90;;;;;;4980667;28;20019;-80
2023/09/17 03:14:13;;;;;;;26.38;22.38;;;18.50;99.90;;;;;;4970518;28;20101;-80
2023/09/17 03:16:39;;;;;;;26.85;20.00;;;18.50;99.90;;;;;;4974440;28;20027;-80
2023/09/17 03:19:04;;;;;;;24.23;20.85;;;18.50;99.90;;;;;;4970188;28;20383;-81
2023/09/17 03:21:30;;;;;;;24.20;20.77;;;18.50;99.90;;;;;;4974606;28;20027;-80
2023/09/17 03:23:56;;;;;;;25.25;21.73;;;18.50;99.90;;;;;;4954255;28;20041;-80
2023/09/17 03:26:22;;;;;;;23.17;20.67;;;18.50;99.90;;;;;;4977138;28;20030;-80
2023/09/17 03:28:47;;;;;;;22.25;19.50;;;18.50;99.90;;;;;;4974899;28;20042;-80
2023/09/17 03:31:13;;;;;;;26.52;22.00;;;18.40;99.90;;;;;;4969585;28;20027;-80
2023/09/17 03:33:38;;;;;;;25.30;19.88;;;18.40;99.90;;;;;;4962052;28;20476;-80
2023/09/17 03:36:04;;;;;;;13.23;11.00;;;18.40;99.90;;;;;;4974467;28;20030;-80
2023/09/17 03:38:30;;;;;;;24.80;20.70;;;18.50;99.90;;;;;;4956368;28;20035;-80
2023/09/17 03:40:59;;;;;;;21.40;18.05;;;18.50;99.90;;;;;;4970955;28;20040;-80
2023/09/17 03:43:27;;;;;;;22.65;20.08;;;18.40;99.90;;;;;;4953555;28;20039;-79
2023/09/17 03:45:52;;;;;;;26.20;19.65;;;18.40;99.90;;;;;;4971621;28;20058;-80
2023/09/17 03:48:19;;;;;;;26.30;21.92;;;18.40;99.90;;;;;;4976531;28;20054;-80
2023/09/17 03:50:45;;;;;;;26.85;21.90;;;18.40;99.90;;;;;;4954384;28;20031;-80
2023/09/17 03:53:12;;;;;;;28.60;22.52;;;18.30;99.90;;;;;;4970880;28;20082;-80
2023/09/17 03:55:38;;;;;;;28.27;22.70;;;18.30;99.90;;;;;;4958328;28;20034;-80
2023/09/17 03:58:04;;;;;;;26.23;21.42;;;18.40;99.90;;;;;;4971027;28;20026;-80
2023/09/17 04:00:30;;;;;;;19.92;17.77;;;18.30;99.90;;;;;;4969758;28;20752;-80
2023/09/17 04:02:55;;;;;;;26.50;21.35;;;18.30;99.90;;;;;;4957896;28;20045;-80
2023/09/17 04:05:21;;;;;;;31.65;23.17;;;18.30;99.90;;;;;;4971697;28;20515;-80
2023/09/17 04:07:47;;;;;;;27.48;22.80;;;18.20;99.90;;;;;;4971307;28;20445;-81
2023/09/17 04:10:13;;;;;;;26.05;22.58;;;18.20;99.90;;;;;;4970450;28;20042;-79
2023/09/17 04:12:40;;;;;;;27.38;23.15;;;18.20;99.90;;;;;;4972563;28;20117;-79
2023/09/17 04:15:13;;;;;;;26.98;22.02;;;18.10;99.90;;;;;;4965315;28;20046;-80
2023/09/17 04:17:39;;;;;;;27.67;23.92;;;18.20;99.90;;;;;;4966799;28;20522;-80
2023/09/17 04:20:17;;;;;;;27.45;24.48;;;18.20;99.90;;;;;;4968855;28;20739;-80
2023/09/17 04:22:43;;;;;;;27.38;23.92;;;18.20;99.90;;;;;;4973075;28;20038;-80
2023/09/17 04:25:09;;;;;;;24.77;22.10;;;18.20;99.90;;;;;;4953112;28;20039;-80
2023/09/17 04:27:41;;;;;;;31.20;25.00;;;18.20;99.90;;;;;;4969596;28;20085;-81
2023/09/17 04:30:07;;;;;;;29.48;24.02;;;18.30;99.90;;;;;;4953954;28;20037;-80
2023/09/17 04:32:37;;;;;;;15.82;14.18;;;18.20;99.90;;;;;;4968552;28;20047;-79
2023/09/17 04:35:10;;;;;;;29.52;23.38;;;18.20;99.90;;;;;;4982126;28;20035;-80
2023/09/17 04:37:35;;;;;;;28.75;23.40;;;18.30;99.90;;;;;;4984742;28;20035;-80
2023/09/17 04:40:02;;;;;;;12.15;10.73;;;18.10;99.90;;;;;;4952092;28;20086;-80
2023/09/17 04:42:28;;;;;;;24.77;21.80;;;18.10;99.90;;;;;;4949063;28;20105;-80
2023/09/17 04:44:54;;;;;;;29.80;24.17;;;18.20;99.90;;;;;;4956102;28;20050;-81
2023/09/17 04:47:19;;;;;;;18.63;16.60;;;18.00;99.90;;;;;;4971566;28;20587;-80
2023/09/17 04:49:45;;;;;;;16.85;15.10;;;18.10;99.90;;;;;;4970321;28;20031;-80
2023/09/17 04:52:10;;;;;;;26.55;23.73;;;18.10;99.90;;;;;;4955769;28;20031;-81
2023/09/17 04:54:38;;;;;;;29.80;24.33;;;18.10;99.90;;;;;;4967846;28;20030;-81
2023/09/17 04:57:04;;;;;;;27.95;24.67;;;18.00;99.90;;;;;;4967134;28;20035;-81
2023/09/17 04:59:30;;;;;;;39.92;27.13;;;18.00;99.90;;;;;;4945170;28;20413;-80
2023/09/17 05:01:55;;;;;;;31.67;27.67;;;17.90;99.90;;;;;;4966803;28;20035;-80
2023/09/17 05:04:24;;;;;;;35.42;28.13;;;17.90;99.90;;;;;;4968496;28;20399;-81
2023/09/17 05:06:49;;;;;;;33.45;27.85;;;17.80;99.90;;;;;;4964981;28;20027;-81
2023/09/17 05:09:15;;;;;;;38.83;28.80;;;17.80;99.90;;;;;;4947884;28;20525;-80
2023/09/17 05:11:40;;;;;;;34.17;27.90;;;17.90;99.90;;;;;;4950040;28;20506;-81
2023/09/17 05:14:06;;;;;;;35.38;28.85;;;17.90;99.90;;;;;;4965907;28;20180;-81
2023/09/17 05:16:32;;;;;;;35.70;28.98;;;17.80;99.90;;;;;;4973896;28;20042;-81
2023/09/17 05:18:57;;;;;;;32.78;28.60;;;17.80;99.90;;;;;;4967641;28;20027;-81
2023/09/17 05:21:23;;;;;;;38.60;30.27;;;17.80;99.90;;;;;;4967996;28;20110;-82
2023/09/17 05:23:48;;;;;;;37.50;29.25;;;17.80;99.90;;;;;;4950929;28;20042;-82
2023/09/17 05:26:15;;;;;;;34.13;28.00;;;17.80;99.90;;;;;;4966483;28;20055;-82
2023/09/17 05:28:41;;;;;;;39.05;29.33;;;17.80;99.90;;;;;;4953645;28;20042;-82
2023/09/17 05:31:06;;;;;;;34.85;28.27;;;17.80;99.90;;;;;;4953874;28;20380;-82
2023/09/17 05:33:32;;;;;;;38.85;30.48;;;17.80;99.90;;;;;;4964306;28;20419;-82
2023/09/17 05:35:57;;;;;;;41.92;30.88;;;17.70;99.90;;;;;;4970424;28;20487;-81
2023/09/17 05:38:24;;;;;;;43.95;31.58;;;17.70;99.90;;;;;;4972006;28;20683;-81
2023/09/17 05:40:50;;;;;;;40.17;30.42;;;17.90;99.90;;;;;;4955683;28;20550;-81
2023/09/17 05:43:16;;;;;;;43.78;32.17;;;17.70;99.90;;;;;;4973032;28;20039;-82
2023/09/17 05:45:41;;;;;;;25.13;21.20;;;17.70;99.90;;;;;;4975593;28;20059;-82
2023/09/17 05:48:07;;;;;;;39.78;31.15;;;17.70;99.90;;;;;;4974247;28;20043;-83
2023/09/17 05:50:32;;;;;;;43.40;32.22;;;17.80;99.90;;;;;;4973693;28;20114;-82
2023/09/17 05:52:58;;;;;;;37.85;31.65;;;17.80;99.90;;;;;;4956879;28;20117;-81
2023/09/17 05:55:23;;;;;;;43.53;33.72;;;17.80;99.90;;;;;;4975254;28;20035;-82
2023/09/17 05:57:49;;;;;;;34.15;28.73;;;17.90;99.90;;;;;;4975684;28;20035;-82
2023/09/17 06:00:16;;;;;;;41.20;32.22;;;17.90;99.90;;;;;;4971407;28;20030;-82
2023/09/17 06:02:42;;;;;;;45.47;31.60;;;17.90;99.90;;;;;;4970547;28;20034;-82
2023/09/17 06:05:08;;;;;;;41.53;32.38;;;17.90;99.90;;;;;;4970574;28;20045;-82
2023/09/17 06:07:34;;;;;;;45.92;33.53;;;17.90;99.90;;;;;;4974004;28;20035;-82
2023/09/17 06:10:00;;;;;;;43.83;33.25;;;17.90;99.90;;;;;;4952050;28;20038;-82
2023/09/17 06:12:25;;;;;;;42.83;34.55;;;17.90;99.90;;;;;;4958614;28;20035;-81
2023/09/17 06:14:51;;;;;;;40.25;30.33;;;17.90;99.90;;;;;;4977493;28;20605;-81
2023/09/17 06:17:16;;;;;;;46.50;34.53;;;17.90;99.90;;;;;;4976688;28;20031;-81
2023/09/17 06:19:42;;;;;;;37.58;29.65;;;18.00;99.90;;;;;;4975119;28;20077;-81
2023/09/17 06:22:08;;;;;;;34.13;27.80;;;17.90;99.90;;;;;;4973706;28;20514;-81
2023/09/17 06:24:33;;;;;;;39.85;30.33;;;18.00;99.90;;;;;;4979308;28;20038;-80
2023/09/17 06:26:59;;;;;;;40.92;32.30;;;18.00;99.90;;;;;;4972774;28;20142;-80
2023/09/17 06:29:24;;;;;;;43.65;36.08;;;18.00;99.90;;;;;;4955813;28;20039;-81
2023/09/17 06:31:50;;;;;;;31.58;25.52;;;18.00;99.90;;;;;;4960556;28;20038;-80
2023/09/17 06:34:16;;;;;;;31.08;26.45;;;18.00;99.90;;;;;;4972233;28;20027;-80
2023/09/17 06:36:41;;;;;;;38.08;29.55;;;18.10;99.90;;;;;;4973408;28;20030;-80
2023/09/17 06:39:07;;;;;;;27.13;22.08;;;18.10;99.90;;;;;;4971939;28;20031;-80
2023/09/17 06:41:33;;;;;;;36.65;30.15;;;18.20;99.90;;;;;;4973988;28;20031;-81
2023/09/17 06:43:58;;;;;;;38.70;32.58;;;18.40;99.90;;;;;;4957117;28;20579;-80
2023/09/17 06:46:24;;;;;;;47.13;34.45;;;18.30;99.90;;;;;;4951470;28;20388;-80
2023/09/17 06:48:50;;;;;;;23.00;18.58;;;18.30;99.90;;;;;;4969017;28;20066;-80
2023/09/17 06:51:17;;;;;;;36.30;27.45;;;18.40;99.90;;;;;;4969654;28;20042;-80
2023/09/17 06:53:43;;;;;;;26.58;23.40;;;18.40;99.90;;;;;;4975149;28;20039;-80
2023/09/17 06:56:09;;;;;;;44.22;34.95;;;18.40;99.90;;;;;;4954629;28;20088;-80
2023/09/17 06:58:35;;;;;;;24.90;20.50;;;18.50;99.90;;;;;;4970098;28;20061;-80
2023/09/17 07:01:00;;;;;;;37.33;30.15;;;18.50;99.90;;;;;;4970993;28;20066;-80
2023/09/17 07:03:26;;;;;;;19.85;16.90;;;18.60;99.90;;;;;;4952762;28;20519;-80
2023/09/17 07:05:51;;;;;;;42.35;33.00;;;18.70;99.90;;;;;;4972094;28;20411;-80
2023/09/17 07:08:17;;;;;;;43.28;35.92;;;18.70;99.90;;;;;;4966500;28;20023;-80
2023/09/17 07:10:46;;;;;;;40.58;31.48;;;18.80;99.90;;;;;;4967526;28;20399;-80
2023/09/17 07:13:12;;;;;;;20.67;17.20;;;19.10;99.90;;;;;;4951423;28;20051;-79
2023/09/17 07:15:38;;;;;;;38.90;32.42;;;19.10;99.90;;;;;;4964645;28;20381;-80
2023/09/17 07:18:04;;;;;;;23.27;19.88;;;19.20;99.90;;;;;;4963847;28;20053;-80
2023/09/17 07:20:30;;;;;;;31.13;24.15;;;19.40;99.90;;;;;;4950230;28;20082;-80
2023/09/17 07:22:55;;;;;;;20.08;17.88;;;19.50;99.90;;;;;;4969118;28;20474;-80
2023/09/17 07:25:22;;;;;;;15.88;14.15;;;19.60;99.90;;;;;;4970135;28;20034;-79
2023/09/17 07:27:47;;;;;;;28.60;21.88;;;19.90;99.90;;;;;;4970546;28;20061;-79
2023/09/17 07:30:13;;;;;;;13.25;11.57;;;20.00;99.90;;;;;;4960868;28;20553;-79
2023/09/17 07:32:39;;;;;;;20.27;16.30;;;20.00;99.90;;;;;;4972734;28;20342;-79
2023/09/17 07:35:05;;;;;;;15.20;12.98;;;20.20;99.90;;;;;;4970743;28;20034;-80
2023/09/17 07:37:31;;;;;;;20.23;15.73;;;20.30;99.90;;;;;;4974211;28;20037;-80
2023/09/17 07:39:59;;;;;;;17.17;14.80;;;20.50;99.90;;;;;;4953328;28;20038;-80
2023/09/17 07:42:24;;;;;;;13.77;10.98;;;20.50;99.90;;;;;;4975002;28;20037;-80
2023/09/17 07:44:50;;;;;;;13.18;11.63;;;20.60;99.90;;;;;;4973200;28;20042;-79
2023/09/17 07:47:17;;;;;;;12.90;11.57;;;20.90;99.90;;;;;;4975042;28;20042;-79
2023/09/17 07:49:43;;;;;;;14.65;13.15;;;21.00;99.90;;;;;;4975014;28;20030;-79
2023/09/17 07:52:08;;;;;;;14.02;12.52;;;21.10;99.90;;;;;;4946949;28;20456;-79
2023/09/17 07:54:38;;;;;;;8.98;8.07;;;21.20;99.90;;;;;;4971809;28;20057;-80
2023/09/17 07:57:06;;;;;;;13.90;9.57;;;21.40;99.90;;;;;;4970414;28;20506;-79
2023/09/17 07:59:32;;;;;;;9.13;8.23;;;21.60;99.90;;;;;;4952846;28;20488;-80
2023/09/17 08:01:58;;;;;;;11.50;9.57;;;21.70;99.90;;;;;;4969151;28;20121;-79
2023/09/17 08:04:24;;;;;;;7.93;7.10;;;21.80;99.90;;;;;;4970146;28;20427;-79
2023/09/17 08:06:49;;;;;;;10.15;7.32;;;22.10;99.90;;;;;;4971464;28;20479;-79
2023/09/17 08:09:16;;;;;;;7.18;6.05;;;22.00;99.90;;;;;;4974437;28;20038;-81
2023/09/17 08:11:42;;;;;;;6.55;5.95;;;22.10;99.90;;;;;;4952839;28;20435;-79
2023/09/17 08:14:08;;;;;;;6.15;5.65;;;22.50;99.90;;;;;;4970401;28;20037;-79
2023/09/17 08:16:35;;;;;;;6.72;5.18;;;22.50;99.90;;;;;;4954052;28;20027;-79
2023/09/17 08:19:00;;;;;;;6.45;5.10;;;22.70;99.90;;;;;;4952762;28;20035;-79
2023/09/17 08:21:27;;;;;;;8.05;5.68;;;22.90;99.90;;;;;;4966564;28;20069;-79
2023/09/17 08:23:52;;;;;;;6.28;5.63;;;23.00;99.90;;;;;;4971162;28;20061;-79
2023/09/17 08:26:18;;;;;;;6.82;4.80;;;23.00;99.90;;;;;;4971896;28;20636;-79
2023/09/17 08:28:45;;;;;;;5.03;4.55;;;23.40;99.90;;;;;;4975268;28;20031;-79
2023/09/17 08:31:11;;;;;;;7.13;5.00;;;23.30;99.90;;;;;;4968001;28;20549;-79
2023/09/17 08:33:37;;;;;;;4.85;4.43;;;23.40;99.90;;;;;;4974252;28;20066;-79
2023/09/17 08:36:02;;;;;;;8.32;4.90;;;23.50;99.90;;;;;;4968640;28;20123;-79
2023/09/17 08:38:29;;;;;;;4.85;4.05;;;23.80;99.90;;;;;;4975337;28;20130;-79
2023/09/17 08:40:56;;;;;;;6.55;4.65;;;23.70;99.90;;;;;;4971303;28;20562;-81
2023/09/17 08:43:23;;;;;;;5.63;4.40;;;23.70;99.90;;;;;;4970327;28;20073;-81
2023/09/17 08:45:48;;;;;;;6.68;4.13;;;23.90;99.90;;;;;;4971459;28;20026;-80
2023/09/17 08:48:14;;;;;;;5.75;4.78;;;23.90;99.90;;;;;;4969441;28;20035;-80
2023/09/17 08:50:39;;;;;;;4.78;4.38;;;24.00;99.90;;;;;;4954968;28;20488;-80
2023/09/17 08:53:06;;;;;;;4.68;4.28;;;24.20;99.90;;;;;;4969278;28;20376;-79
2023/09/17 08:55:32;;;;;;;5.10;4.60;;;24.20;99.90;;;;;;4970419;28;20042;-79
2023/09/17 08:58:18;;;;;;;4.70;3.90;;;24.30;99.90;;;;;;4966666;28;20085;-80
2023/09/17 09:00:46;;;;;;;8.88;3.65;;;24.30;99.90;;;;;;4963500;28;20503;-79
2023/09/17 09:03:13;;;;;;;4.75;4.15;;;24.60;99.90;;;;;;4955972;28;20122;-79
2023/09/17 09:05:39;;;;;;;4.95;3.70;;;24.60;99.90;;;;;;4970925;28;20439;-79
2023/09/17 09:08:04;;;;;;;4.03;3.63;;;24.90;99.90;;;;;;4961982;28;20026;-79
2023/09/17 09:10:31;;;;;;;4.78;4.22;;;25.00;99.90;;;;;;4966316;28;20030;-79
2023/09/17 09:12:56;;;;;;;6.47;4.35;;;25.00;99.90;;;;;;4956581;28;20089;-79
2023/09/17 09:15:22;;;;;;;6.20;4.88;;;25.20;99.90;;;;;;4956234;28;20030;-79
2023/09/17 09:17:48;;;;;;;6.50;3.75;;;25.40;99.90;;;;;;4959630;28;20364;-80
2023/09/17 09:20:18;;;;;;;4.10;3.80;;;25.20;99.90;;;;;;4970406;28;20031;-80
2023/09/17 09:22:45;;;;;;;5.05;4.03;;;25.50;99.90;;;;;;4970693;28;20043;-79
2023/09/17 09:25:14;;;;;;;4.82;4.32;;;25.40;99.90;;;;;;4956419;28;20046;-79
2023/09/17 09:27:39;;;;;;;3.75;2.92;;;25.60;99.90;;;;;;4973079;28;20034;-79
2023/09/17 09:30:09;;;;;;;6.25;4.47;;;25.90;99.90;;;;;;4960077;28;20045;-79
2023/09/17 09:32:38;;;;;;;4.93;3.67;;;25.90;99.90;;;;;;4974950;28;20044;-80
2023/09/17 09:35:04;;;;;;;3.95;3.17;;;26.20;99.90;;;;;;4976849;28;20033;-79
2023/09/17 09:37:29;;;;;;;4.38;3.92;;;26.20;99.90;;;;;;4975826;28;20030;-80
2023/09/17 09:39:55;;;;;;;4.18;3.40;;;26.20;99.90;;;;;;4976270;28;20034;-79
2023/09/17 09:42:22;;;;;;;3.95;3.55;;;26.10;99.90;;;;;;4973813;28;20050;-79
2023/09/17 09:44:48;;;;;;;5.18;3.85;;;26.50;99.90;;;;;;4959276;28;20104;-78
2023/09/17 09:47:14;;;;;;;3.75;3.40;;;27.10;99.70;;;;;;4962321;28;20065;-81
2023/09/17 09:49:40;;;;;;;3.88;3.58;;;27.20;99.70;;;;;;4979114;28;20454;-79
2023/09/17 09:52:06;;;;;;;6.05;3.65;;;27.00;99.90;;;;;;4968765;28;20066;-79
2023/09/17 09:54:32;;;;;;;6.25;3.83;;;27.10;99.40;;;;;;4977937;28;20061;-79
2023/09/17 09:56:58;;;;;;;6.25;3.63;;;27.20;99.70;;;;;;4973821;28;20419;-79
2023/09/17 09:59:24;;;;;;;4.50;3.75;;;27.00;99.90;;;;;;4975399;28;20082;-79
2023/09/17 10:01:49;;;;;;;4.18;3.78;;;27.40;99.70;;;;;;4975088;28;20034;-79
2023/09/17 10:04:15;;;;;;;3.60;3.30;;;27.60;98.70;;;;;;4976426;28;20026;-79
2023/09/17 10:06:41;;;;;;;3.80;3.25;;;27.60;98.30;;;;;;4973327;28;20041;-80
2023/09/17 10:09:06;;;;;;;4.70;2.83;;;27.80;97.80;;;;;;4976389;28;20027;-79
2023/09/17 10:11:32;;;;;;;3.72;3.33;;;27.80;97.20;;;;;;4975237;28;20070;-79
2023/09/17 10:14:02;;;;;;;5.25;3.10;;;27.80;96.40;;;;;;4957229;28;20121;-78
2023/09/17 10:16:29;;;;;;;6.80;3.30;;;27.70;97.10;;;;;;4972138;28;20387;-78
2023/09/17 10:18:55;;;;;;;7.80;3.53;;;27.80;95.90;;;;;;4959826;28;20416;-79
2023/09/17 10:21:20;;;;;;;3.55;3.00;;;27.90;96.20;;;;;;4969825;28;20036;-79
2023/09/17 10:23:46;;;;;;;4.80;3.50;;;28.10;95.60;;;;;;4973875;28;20038;-78
2023/09/17 10:26:15;;;;;;;3.90;3.50;;;27.90;96.00;;;;;;4969865;28;20296;-79
2023/09/17 10:28:40;;;;;;;3.60;2.80;;;27.80;95.90;;;;;;4974187;28;20030;-77
2023/09/17 10:31:06;;;;;;;4.43;3.25;;;28.20;95.20;;;;;;4970785;28;20225;-78
2023/09/17 10:33:32;;;;;;;3.88;3.13;;;28.20;95.50;;;;;;4956147;28;20101;-78
2023/09/17 10:35:58;;;;;;;3.13;2.83;;;28.20;96.10;;;;;;4956488;28;20392;-79
2023/09/17 10:38:24;;;;;;;6.22;2.90;;;28.30;94.50;;;;;;4948310;28;20086;-78
2023/09/17 10:40:50;;;;;;;3.03;2.72;;;28.30;95.20;;;;;;4972795;28;20042;-79
2023/09/17 10:43:16;;;;;;;4.35;3.95;;;28.60;94.10;;;;;;4971165;28;20041;-79
2023/09/17 10:45:41;;;;;;;6.25;3.42;;;28.60;94.20;;;;;;4958198;28;20490;-78
2023/09/17 10:48:08;;;;;;;5.43;3.67;;;28.80;93.80;;;;;;4987253;28;20031;-80
2023/09/17 10:50:36;;;;;;;4.88;3.03;;;28.80;94.20;;;;;;4975884;28;20031;-79
2023/09/17 10:53:02;;;;;;;5.47;3.13;;;28.80;94.60;;;;;;4973454;28;20039;-81
2023/09/17 10:55:30;;;;;;;4.55;3.33;;;29.00;94.60;;;;;;4960200;28;20105;-80
2023/09/17 10:58:06;;;;;;;4.60;3.72;;;29.20;93.20;;;;;;4936436;28;20077;-80
2023/09/17 11:00:34;;;;;;;4.22;3.78;;;29.40;93.40;;;;;;4955006;28;20308;-80
2023/09/17 11:03:00;;;;;;;4.20;3.55;;;29.20;94.40;;;;;;4986534;28;20062;-79
2023/09/17 11:05:25;;;;;;;3.60;3.00;;;29.40;93.40;;;;;;4957798;28;20043;-79
2023/09/17 11:07:52;;;;;;;4.22;2.97;;;29.60;92.60;;;;;;4972441;28;20034;-79
2023/09/17 11:10:19;;;;;;;3.47;3.17;;;29.90;92.40;;;;;;4969593;28;20114;-79
2023/09/17 11:12:46;;;;;;;10.98;3.63;;;29.60;92.60;;;;;;4976075;28;20761;-80
2023/09/17 11:15:13;;;;;;;3.47;2.83;;;29.80;92.40;;;;;;4969213;28;20046;-79
2023/09/17 11:17:39;;;;;;;4.38;3.05;;;30.20;92.60;;;;;;4971613;28;20038;-79
2023/09/17 11:20:14;;;;;;;3.67;2.58;;;30.70;91.80;;;;;;4958858;28;20514;-80
2023/09/17 11:22:43;;;;;;;4.37;3.03;;;30.10;92.00;;;;;;4956422;28;20069;-79
2023/09/17 11:25:12;;;;;;;3.72;2.67;;;30.50;90.90;;;;;;4968470;28;20566;-80
2023/09/17 11:27:50;;;;;;;2.70;2.50;;;30.70;90.40;;;;;;4967902;28;20058;-79
2023/09/17 11:30:18;;;;;;;3.28;2.97;;;30.90;89.00;;;;;;4986599;28;20038;-78
2023/09/17 11:32:53;;;;;;;3.00;2.70;;;31.00;88.50;;;;;;4970297;28;20049;-79
2023/09/17 11:35:22;;;;;;;6.22;2.88;;;30.50;89.40;;;;;;4989247;28;20064;-79
2023/09/17 11:37:49;;;;;;;3.75;2.97;;;30.80;88.80;;;;;;4973376;28;20117;-79
2023/09/17 11:40:15;;;;;;;4.63;2.55;;;31.10;87.80;;;;;;4971465;28;20038;-78
2023/09/17 11:42:42;;;;;;;3.90;2.88;;;31.00;87.10;;;;;;4968411;28;20487;-78
2023/09/17 11:45:08;;;;;;;3.65;2.70;;;31.10;84.30;;;;;;4969764;28;20039;-79
2023/09/17 11:47:37;;;;;;;3.47;2.90;;;31.20;84.50;;;;;;4973888;28;20492;-79
2023/09/17 11:50:04;;;;;;;3.35;2.38;;;31.30;84.00;;;;;;4964418;28;20113;-79
2023/09/17 11:52:29;;;;;;;3.13;2.83;;;30.70;84.90;;;;;;4969280;28;20034;-79
2023/09/17 11:55:03;;;;;;;4.00;3.03;;;30.80;85.50;;;;;;4971798;28;20398;-78
2023/09/17 11:57:28;;;;;;;3.15;2.95;;;30.80;85.90;;;;;;4971589;28;20035;-78
2023/09/17 11:59:55;;;;;;;3.15;2.95;;;30.80;85.20;;;;;;4987686;28;20034;-78
2023/09/17 12:02:20;;;;;;;4.70;4.00;;;31.00;85.10;;;;;;4961518;28;20045;-79
2023/09/17 12:04:46;;;;;;;4.45;3.25;;;30.60;86.40;;;;;;4973877;28;20470;-79
2023/09/17 12:07:12;;;;;;;3.30;2.63;;;30.50;86.70;;;;;;4969040;28;20165;-78
2023/09/17 12:10:00;;;;;;;4.00;3.50;;;30.60;86.30;;;;;;4961395;28;20054;-80
2023/09/17 12:12:27;;;;;;;4.00;3.08;;;30.50;87.60;;;;;;4983421;28;20051;-79
2023/09/17 12:14:53;;;;;;;3.88;2.90;;;30.70;84.70;;;;;;4971028;28;20084;-78
2023/09/17 12:17:19;;;;;;;7.22;2.90;;;31.00;85.00;;;;;;4974343;28;20068;-79
2023/09/17 12:19:46;;;;;;;3.42;3.10;;;30.80;84.50;;;;;;4971034;28;20045;-78
2023/09/17 12:22:11;;;;;;;2.78;2.58;;;30.80;83.70;;;;;;4964672;28;20474;-79
2023/09/17 12:24:45;;;;;;;3.00;2.70;;;30.90;83.50;;;;;;4969066;28;20067;-78
2023/09/17 12:27:25;;;;;;;4.70;3.42;;;30.90;83.80;;;;;;4973290;28;20417;-78
2023/09/17 12:29:53;;;;;;;4.97;3.28;;;30.80;84.50;;;;;;4971280;28;20101;-78